createdAt,value
2022-10-24T00:01:20.333Z,17.40
2022-10-24T00:03:48.009Z,17.40
2022-10-24T00:06:15.587Z,17.40
2022-10-24T00:08:44.005Z,17.40
2022-10-24T00:11:14.626Z,17.40
2022-10-24T00:13:42.665Z,17.50
2022-10-24T00:16:10.040Z,17.60
2022-10-24T00:18:37.074Z,17.60
2022-10-24T00:21:04.924Z,17.50
2022-10-24T00:23:32.004Z,17.50
2022-10-24T00:26:01.907Z,17.40
2022-10-24T00:28:33.788Z,17.40
2022-10-24T00:31:01.594Z,17.30
2022-10-24T00:33:28.370Z,17.30
2022-10-24T00:35:55.470Z,17.30
2022-10-24T00:38:22.497Z,17.30
2022-10-24T00:40:49.747Z,17.30
2022-10-24T00:43:22.374Z,17.30
2022-10-24T00:45:57.693Z,17.30
2022-10-24T00:48:27.479Z,17.20
2022-10-24T00:51:02.664Z,17.20
2022-10-24T00:53:31.775Z,17.20
2022-10-24T00:56:02.049Z,17.20
2022-10-24T00:58:32.409Z,17.20
2022-10-24T01:00:59.774Z,17.30
2022-10-24T01:03:27.509Z,17.20
2022-10-24T01:05:57.611Z,17.20
2022-10-24T01:08:37.041Z,17.20
2022-10-24T01:11:45.376Z,17.20
2022-10-24T01:14:39.825Z,17.20
2022-10-24T01:17:33.417Z,17.20
2022-10-24T01:20:22.517Z,17.20
2022-10-24T01:23:20.857Z,17.20
2022-10-24T01:26:07.712Z,17.20
2022-10-24T01:29:12.423Z,17.20
2022-10-24T01:31:54.412Z,17.20
2022-10-24T01:34:38.041Z,17.20
2022-10-24T01:37:14.908Z,17.10
2022-10-24T01:39:48.189Z,17.10
2022-10-24T01:42:19.964Z,17.10
2022-10-24T01:44:53.300Z,17.10
2022-10-24T01:47:26.578Z,17.10
2022-10-24T01:50:01.211Z,17.10
2022-10-24T01:52:33.137Z,17.10
2022-10-24T01:55:00.337Z,17.00
2022-10-24T01:57:32.203Z,17.00
2022-10-24T01:59:59.150Z,17.00
2022-10-24T02:02:38.507Z,17.10
2022-10-24T02:05:08.282Z,17.00
2022-10-24T02:07:37.566Z,16.80
2022-10-24T02:10:12.068Z,16.80
2022-10-24T02:12:42.938Z,16.80
2022-10-24T02:15:20.713Z,16.80
2022-10-24T02:17:47.604Z,16.80
2022-10-24T02:20:14.862Z,16.80
2022-10-24T02:23:01.100Z,16.90
2022-10-24T02:25:36.446Z,16.90
2022-10-24T02:28:31.716Z,16.90
2022-10-24T02:31:08.015Z,16.90
2022-10-24T02:33:38.054Z,16.90
2022-10-24T02:36:07.027Z,17.00
2022-10-24T02:38:38.805Z,16.90
2022-10-24T02:41:11.326Z,16.80
2022-10-24T02:43:40.146Z,16.80
2022-10-24T02:46:09.013Z,16.70
2022-10-24T02:48:40.805Z,16.70
2022-10-24T02:51:07.887Z,16.70
2022-10-24T02:53:38.834Z,16.80
2022-10-24T02:56:06.149Z,16.90
2022-10-24T02:58:32.946Z,16.90
2022-10-24T03:00:59.713Z,16.90
2022-10-24T03:03:26.594Z,16.90
2022-10-24T03:05:53.634Z,16.90
2022-10-24T03:08:20.639Z,16.90
2022-10-24T03:10:47.733Z,17.00
2022-10-24T03:13:14.736Z,16.90
2022-10-24T03:15:41.471Z,17.00
2022-10-24T03:18:08.459Z,16.90
2022-10-24T03:20:35.729Z,16.90
2022-10-24T03:23:05.562Z,16.90
2022-10-24T03:25:32.515Z,16.90
2022-10-24T03:27:59.501Z,16.90
2022-10-24T03:30:26.264Z,16.90
2022-10-24T03:32:53.213Z,16.90
2022-10-24T03:35:20.294Z,16.90
2022-10-24T03:37:47.279Z,16.90
2022-10-24T03:40:15.649Z,16.90
2022-10-24T03:42:42.780Z,16.80
2022-10-24T03:45:10.253Z,16.80
2022-10-24T03:47:37.236Z,16.80
2022-10-24T03:50:05.309Z,16.80
2022-10-24T03:52:33.236Z,16.80
2022-10-24T03:54:59.909Z,16.80
2022-10-24T03:57:27.013Z,16.80
2022-10-24T03:59:53.646Z,16.90
2022-10-24T04:02:20.725Z,16.90
2022-10-24T04:04:47.884Z,16.80
2022-10-24T04:07:15.612Z,16.70
2022-10-24T04:09:42.637Z,16.70
2022-10-24T04:12:09.669Z,16.60
2022-10-24T04:14:36.988Z,16.60
2022-10-24T04:17:03.887Z,16.50
2022-10-24T04:19:30.848Z,16.50
2022-10-24T04:21:57.894Z,16.60
2022-10-24T04:24:25.345Z,16.60
2022-10-24T04:26:52.398Z,16.60
2022-10-24T04:29:19.555Z,16.60
2022-10-24T04:31:46.517Z,16.60
2022-10-24T04:34:13.496Z,16.70
2022-10-24T04:36:40.541Z,16.70
2022-10-24T04:39:07.745Z,16.70
2022-10-24T04:41:35.229Z,16.70
2022-10-24T04:44:02.079Z,16.70
2022-10-24T04:46:28.786Z,16.60
2022-10-24T04:48:55.908Z,16.60
2022-10-24T04:51:22.992Z,16.70
2022-10-24T04:53:50.973Z,16.70
2022-10-24T04:56:18.973Z,16.70
2022-10-24T04:58:46.162Z,16.70
2022-10-24T05:01:13.232Z,16.70
2022-10-24T05:03:40.330Z,16.70
2022-10-24T05:06:07.076Z,16.70
2022-10-24T05:08:36.179Z,16.70
2022-10-24T05:11:04.314Z,16.70
2022-10-24T05:13:34.325Z,16.70
2022-10-24T05:16:04.400Z,16.70
2022-10-24T05:18:32.397Z,16.70
2022-10-24T05:21:00.410Z,16.70
2022-10-24T05:23:27.856Z,16.70
2022-10-24T05:25:54.631Z,16.70
2022-10-24T05:28:21.680Z,16.70
2022-10-24T05:30:48.669Z,16.70
2022-10-24T05:33:15.520Z,16.70
2022-10-24T05:35:42.441Z,16.70
2022-10-24T05:38:09.610Z,16.70
2022-10-24T05:40:36.513Z,16.70
2022-10-24T05:43:03.777Z,16.60
2022-10-24T05:45:30.657Z,16.60
2022-10-24T05:47:57.689Z,16.60
2022-10-24T05:50:27.579Z,16.70
2022-10-24T05:52:54.637Z,16.70
2022-10-24T05:55:21.644Z,16.70
2022-10-24T05:57:48.896Z,16.70
2022-10-24T06:00:17.255Z,16.50
2022-10-24T06:02:44.555Z,16.40
2022-10-24T06:05:13.170Z,16.20
2022-10-24T06:07:42.206Z,15.60
2022-10-24T06:10:11.581Z,15.40
2022-10-24T06:12:38.689Z,15.30
2022-10-24T06:15:07.765Z,15.10
2022-10-24T06:17:36.161Z,15.10
2022-10-24T06:20:03.831Z,15.00
2022-10-24T06:22:30.852Z,14.90
2022-10-24T06:24:58.546Z,14.90
2022-10-24T06:27:25.786Z,14.80
2022-10-24T06:29:52.755Z,14.90
2022-10-24T06:32:19.669Z,14.80
2022-10-24T06:34:46.725Z,14.80
2022-10-24T06:37:13.817Z,14.70
2022-10-24T06:39:40.861Z,14.70
2022-10-24T06:42:07.925Z,14.90
2022-10-24T06:44:35.117Z,14.90
2022-10-24T06:47:01.957Z,14.90
2022-10-24T06:49:29.022Z,15.00
2022-10-24T06:51:57.211Z,15.00
2022-10-24T06:54:26.456Z,15.00
2022-10-24T06:56:56.308Z,15.00
2022-10-24T06:59:23.389Z,15.10
2022-10-24T07:01:50.533Z,15.10
2022-10-24T07:04:17.583Z,15.10
2022-10-24T07:06:44.902Z,15.20
2022-10-24T07:09:15.254Z,15.20
2022-10-24T07:11:45.821Z,15.30
2022-10-24T07:14:13.060Z,15.30
2022-10-24T07:16:40.379Z,15.40
2022-10-24T07:19:07.607Z,15.50
2022-10-24T07:21:34.607Z,15.50
2022-10-24T07:24:02.004Z,15.60
2022-10-24T07:26:30.640Z,15.60
2022-10-24T07:31:35.559Z,15.70
2022-10-24T07:34:03.830Z,15.80
2022-10-24T07:36:31.744Z,15.80
2022-10-24T07:38:59.643Z,15.80
2022-10-24T07:41:28.501Z,15.90
2022-10-24T07:43:56.490Z,16.00
2022-10-24T07:46:24.252Z,16.00
2022-10-24T07:48:51.598Z,16.10
2022-10-24T07:51:19.551Z,16.20
2022-10-24T07:53:46.573Z,16.30
2022-10-24T07:56:15.628Z,16.30
2022-10-24T07:58:43.868Z,16.30
2022-10-24T08:01:14.026Z,16.40
2022-10-24T08:03:41.649Z,16.50
2022-10-24T08:06:13.886Z,16.50
2022-10-24T08:08:41.644Z,16.60
2022-10-24T08:11:15.279Z,16.70
2022-10-24T08:13:44.627Z,16.90
2022-10-24T08:16:14.746Z,16.80
2022-10-24T08:18:41.992Z,16.70
2022-10-24T08:21:11.634Z,16.70
2022-10-24T08:23:41.521Z,16.70
2022-10-24T08:26:09.908Z,16.80
2022-10-24T08:28:36.997Z,16.80
2022-10-24T08:31:07.219Z,16.90
2022-10-24T08:33:34.989Z,16.90
2022-10-24T08:36:13.930Z,16.90
2022-10-24T08:38:40.698Z,17.00
2022-10-24T08:41:15.561Z,17.10
2022-10-24T08:43:43.008Z,17.10
2022-10-24T08:46:44.277Z,17.20
2022-10-24T08:49:23.171Z,17.40
2022-10-24T08:52:21.208Z,17.30
2022-10-24T08:54:50.262Z,17.30
2022-10-24T08:57:23.477Z,17.20
2022-10-24T08:59:52.435Z,17.30
2022-10-24T09:02:24.338Z,17.30
2022-10-24T09:04:59.531Z,17.40
2022-10-24T09:07:27.521Z,17.50
2022-10-24T09:10:13.681Z,17.80
2022-10-24T09:12:40.499Z,17.90
2022-10-24T09:15:30.226Z,18.10
2022-10-24T09:17:58.342Z,19.30
2022-10-24T09:20:33.352Z,21.10
2022-10-24T09:23:04.921Z,22.40
2022-10-24T09:25:35.345Z,23.30
2022-10-24T09:28:04.581Z,23.50
2022-10-24T09:30:33.434Z,24.70
2022-10-24T09:33:17.738Z,25.00
2022-10-24T09:35:45.305Z,23.90
2022-10-24T09:38:27.847Z,23.50
2022-10-24T09:40:57.488Z,23.90
2022-10-24T09:43:38.692Z,24.60
2022-10-24T09:46:16.105Z,23.90
2022-10-24T09:49:22.660Z,23.10
2022-10-24T09:52:19.397Z,22.80
2022-10-24T09:54:47.532Z,21.70
2022-10-24T09:57:16.912Z,22.20
2022-10-24T09:59:47.606Z,22.40
2022-10-24T10:02:19.553Z,22.80
2022-10-24T10:04:48.948Z,23.20
2022-10-24T10:07:19.606Z,22.80
2022-10-24T10:09:58.212Z,21.70
2022-10-24T10:12:32.835Z,21.10
2022-10-24T10:15:02.508Z,20.40
2022-10-24T10:17:31.320Z,20.20
2022-10-24T10:19:59.361Z,20.60
2022-10-24T10:22:32.923Z,22.30
2022-10-24T10:25:00.593Z,22.60
2022-10-24T10:27:37.933Z,22.30
2022-10-24T10:30:07.622Z,21.70
2022-10-24T10:33:00.813Z,22.20
2022-10-24T10:35:36.762Z,22.70
2022-10-24T10:38:37.364Z,22.00
2022-10-24T10:41:14.980Z,22.40
2022-10-24T10:44:08.957Z,22.20
2022-10-24T10:46:57.828Z,22.30
2022-10-24T10:49:32.124Z,21.40
2022-10-24T10:52:08.358Z,20.60
2022-10-24T10:55:03.954Z,19.90
2022-10-24T10:57:38.497Z,19.50
2022-10-24T11:00:12.645Z,19.70
2022-10-24T11:03:27.266Z,19.60
2022-10-24T11:05:59.453Z,19.40
2022-10-24T11:09:17.787Z,19.10
2022-10-24T11:11:52.165Z,18.90
2022-10-24T11:14:38.665Z,19.10
2022-10-24T11:17:45.171Z,19.40
2022-10-24T11:20:23.609Z,19.40
2022-10-24T11:23:29.133Z,19.30
2022-10-24T11:26:28.717Z,19.40
2022-10-24T11:29:33.046Z,19.50
2022-10-24T11:32:07.554Z,19.10
2022-10-24T11:34:45.104Z,18.50
2022-10-24T11:37:35.694Z,18.10
2022-10-24T11:40:16.797Z,18.00
2022-10-24T11:43:26.954Z,17.60
2022-10-24T11:46:20.730Z,17.30
2022-10-24T11:48:53.883Z,16.70
2022-10-24T11:51:45.037Z,16.30
2022-10-24T11:54:32.536Z,16.10
2022-10-24T11:57:10.175Z,15.90
2022-10-24T11:59:40.957Z,15.90
2022-10-24T12:02:31.085Z,16.00
2022-10-24T12:05:24.308Z,16.10
2022-10-24T12:08:13.130Z,16.30
2022-10-24T12:11:38.503Z,16.30
2022-10-24T12:14:32.998Z,16.30
2022-10-24T12:17:13.242Z,16.30
2022-10-24T12:19:41.980Z,16.30
2022-10-24T12:22:17.468Z,16.30
2022-10-24T12:24:45.825Z,16.50
2022-10-24T12:27:35.528Z,16.40
2022-10-24T12:30:19.322Z,16.20
2022-10-24T12:32:53.552Z,16.20
2022-10-24T12:35:35.816Z,16.10
2022-10-24T12:38:14.015Z,16.30
2022-10-24T12:40:51.598Z,16.30
2022-10-24T12:43:34.881Z,16.30
2022-10-24T12:46:23.540Z,16.60
2022-10-24T12:49:00.419Z,17.80
2022-10-24T12:51:29.693Z,19.40
2022-10-24T12:54:12.059Z,20.40
2022-10-24T12:56:53.851Z,20.90
2022-10-24T12:59:20.574Z,21.50
2022-10-24T13:02:07.405Z,22.30
2022-10-24T13:04:41.167Z,22.20
2022-10-24T13:07:41.324Z,22.00
2022-10-24T13:10:08.132Z,21.80
2022-10-24T13:12:49.934Z,21.50
2022-10-24T13:15:46.841Z,21.60
2022-10-24T13:18:38.514Z,21.30
2022-10-24T13:21:31.205Z,20.50
2022-10-24T13:24:16.028Z,21.00
2022-10-24T13:26:44.246Z,21.60
2022-10-24T13:29:25.557Z,22.80
2022-10-24T13:32:05.778Z,22.60
2022-10-24T13:34:50.066Z,22.90
2022-10-24T13:37:27.719Z,23.60
2022-10-24T13:40:09.798Z,23.30
2022-10-24T13:42:50.582Z,22.80
2022-10-24T13:45:55.961Z,22.60
2022-10-24T13:48:34.978Z,22.60
2022-10-24T13:51:23.847Z,23.10
2022-10-24T13:54:03.891Z,22.20
2022-10-24T13:56:37.996Z,20.60
2022-10-24T13:59:07.624Z,19.90
2022-10-24T14:01:38.161Z,20.00
2022-10-24T14:04:08.164Z,19.60
2022-10-24T14:06:35.211Z,19.20
2022-10-24T14:09:09.318Z,18.80
2022-10-24T14:11:47.686Z,18.70
2022-10-24T14:14:37.407Z,18.30
2022-10-24T14:17:23.019Z,18.20
2022-10-24T14:19:58.246Z,18.10
2022-10-24T14:22:29.196Z,18.20
2022-10-24T14:24:56.948Z,18.40
2022-10-24T14:27:24.358Z,18.60
2022-10-24T14:30:00.970Z,18.70
2022-10-24T14:32:30.944Z,18.70
2022-10-24T14:34:59.188Z,18.70
2022-10-24T14:37:35.808Z,18.60
2022-10-24T14:40:04.581Z,18.70
2022-10-24T14:42:32.432Z,18.50
2022-10-24T14:45:00.636Z,18.40
2022-10-24T14:47:34.054Z,18.40
2022-10-24T14:50:01.133Z,18.30
2022-10-24T14:52:38.989Z,18.20
2022-10-24T14:55:32.285Z,18.10
2022-10-24T14:57:59.355Z,18.10
2022-10-24T15:00:28.642Z,18.20
2022-10-24T15:02:57.909Z,18.30
2022-10-24T15:05:27.430Z,18.50
2022-10-24T15:08:20.308Z,18.60
2022-10-24T15:10:46.530Z,18.50
2022-10-24T15:13:22.045Z,18.50
2022-10-24T15:15:56.652Z,18.50
2022-10-24T15:18:31.617Z,18.40
2022-10-24T15:21:07.194Z,18.20
2022-10-24T15:23:37.715Z,18.20
2022-10-24T15:26:16.753Z,18.20
2022-10-24T15:28:48.204Z,18.10
2022-10-24T15:31:20.052Z,17.90
2022-10-24T15:33:47.816Z,17.80
2022-10-24T15:36:24.252Z,17.80
2022-10-24T15:39:06.402Z,17.80
2022-10-24T15:41:33.611Z,17.80
2022-10-24T15:44:01.208Z,17.70
2022-10-24T15:46:28.234Z,17.60
2022-10-24T15:48:55.021Z,17.50
2022-10-24T15:51:24.640Z,17.40
2022-10-24T15:53:52.599Z,17.40
2022-10-24T15:56:19.646Z,17.30
2022-10-24T15:58:49.502Z,17.20
2022-10-24T16:01:50.657Z,17.20
2022-10-24T16:04:18.561Z,17.10
2022-10-24T16:06:45.405Z,17.10
2022-10-24T16:09:18.167Z,17.10
2022-10-24T16:11:45.205Z,17.00
2022-10-24T16:14:17.525Z,17.00
2022-10-24T16:16:45.269Z,16.90
2022-10-24T16:19:12.277Z,16.90
2022-10-24T16:21:40.516Z,16.80
2022-10-24T16:24:08.553Z,16.80
2022-10-24T16:26:36.155Z,16.80
2022-10-24T16:29:03.476Z,16.70
2022-10-24T16:31:31.169Z,16.70
2022-10-24T16:33:58.820Z,16.70
2022-10-24T16:36:26.228Z,16.80
2022-10-24T16:38:53.286Z,16.80
2022-10-24T16:41:22.660Z,16.70
2022-10-24T16:43:50.395Z,16.60
2022-10-24T16:46:21.263Z,16.60
2022-10-24T16:48:48.891Z,16.60
2022-10-24T16:51:23.551Z,16.50
2022-10-24T16:53:51.077Z,16.60
2022-10-24T16:56:17.771Z,16.60
2022-10-24T16:58:45.188Z,16.70
2022-10-24T17:01:14.912Z,16.60
2022-10-24T17:03:42.163Z,16.60
2022-10-24T17:06:09.285Z,16.60
2022-10-24T17:08:36.701Z,16.70
2022-10-24T17:11:07.039Z,16.60
2022-10-24T17:13:39.454Z,16.60
2022-10-24T17:16:10.893Z,16.60
2022-10-24T17:18:37.864Z,16.70
2022-10-24T17:21:04.801Z,16.80
2022-10-24T17:23:32.032Z,16.80
2022-10-24T17:25:59.385Z,16.90
2022-10-24T17:28:32.302Z,16.80
2022-10-24T17:31:00.374Z,16.80
2022-10-24T17:33:27.340Z,16.80
2022-10-24T17:35:57.388Z,16.80
2022-10-24T17:38:46.074Z,16.90
2022-10-24T17:41:21.155Z,17.00
2022-10-24T17:43:48.513Z,17.00
2022-10-24T17:46:15.486Z,17.10
2022-10-24T17:48:42.357Z,16.90
2022-10-24T17:51:11.318Z,16.70
2022-10-24T17:53:38.131Z,16.50
2022-10-24T17:56:05.362Z,16.40
2022-10-24T17:58:33.511Z,16.50
2022-10-24T18:01:01.083Z,16.40
2022-10-24T18:03:28.766Z,16.40
2022-10-24T18:06:04.338Z,16.50
2022-10-24T18:08:31.107Z,16.40
2022-10-24T18:11:05.620Z,16.40
2022-10-24T18:13:32.758Z,16.50
2022-10-24T18:16:05.366Z,16.40
2022-10-24T18:18:32.350Z,16.40
2022-10-24T18:21:10.779Z,16.40
2022-10-24T18:23:38.882Z,16.40
2022-10-24T18:26:11.414Z,16.20
2022-10-24T18:28:40.457Z,16.30
2022-10-24T18:31:12.486Z,16.20
2022-10-24T18:33:40.241Z,16.30
2022-10-24T18:36:09.194Z,16.30
2022-10-24T18:38:37.687Z,16.30
2022-10-24T18:41:04.671Z,16.40
2022-10-24T18:43:31.635Z,16.40
2022-10-24T18:45:59.139Z,16.40
2022-10-24T18:48:26.248Z,16.40
2022-10-24T18:50:53.101Z,16.40
2022-10-24T18:53:24.680Z,16.50
2022-10-24T18:55:53.071Z,16.50
2022-10-24T18:58:20.223Z,16.40
2022-10-24T19:00:47.718Z,16.40
2022-10-24T19:03:33.421Z,16.50
2022-10-24T19:06:23.680Z,16.40
2022-10-24T19:08:51.125Z,16.30
2022-10-24T19:11:18.565Z,16.30
2022-10-24T19:13:45.859Z,16.30
2022-10-24T19:16:20.055Z,16.20
2022-10-24T19:18:53.674Z,16.30
2022-10-24T19:21:21.358Z,16.20
2022-10-24T19:23:48.431Z,16.10
2022-10-24T19:26:15.186Z,16.00
2022-10-24T19:28:43.250Z,16.10
2022-10-24T19:31:12.406Z,16.10
2022-10-24T19:33:41.169Z,16.20
2022-10-24T19:36:08.840Z,16.20
2022-10-24T19:38:35.965Z,16.20
2022-10-24T19:41:05.956Z,16.20
2022-10-24T19:43:32.809Z,16.20
2022-10-24T19:46:19.774Z,16.20
2022-10-24T19:48:51.797Z,16.20
2022-10-24T19:51:20.303Z,16.30
2022-10-24T19:53:48.085Z,16.20
2022-10-24T19:56:23.975Z,16.10
2022-10-24T19:58:53.296Z,16.10
2022-10-24T20:01:23.541Z,16.10
2022-10-24T20:03:50.964Z,16.20
2022-10-24T20:06:18.910Z,16.20
2022-10-24T20:08:47.897Z,16.10
2022-10-24T20:11:15.803Z,16.00
2022-10-24T20:13:43.980Z,16.10
2022-10-24T20:16:11.709Z,15.90
2022-10-24T20:21:13.925Z,15.90
2022-10-24T20:23:41.747Z,16.00
2022-10-24T20:26:28.600Z,16.10
2022-10-24T20:28:55.867Z,16.10
2022-10-24T20:31:36.349Z,16.00
2022-10-24T20:34:08.068Z,16.00
2022-10-24T20:36:37.877Z,15.90
2022-10-24T20:39:06.291Z,15.90
2022-10-24T20:41:33.329Z,15.90
2022-10-24T20:43:59.985Z,15.80
2022-10-24T20:46:26.820Z,15.70
2022-10-24T20:48:53.969Z,15.70
2022-10-24T20:51:21.605Z,15.60
2022-10-24T20:53:48.872Z,15.70
2022-10-24T20:56:22.439Z,15.70
2022-10-24T20:58:51.053Z,15.60
2022-10-24T21:01:23.320Z,15.70
2022-10-24T21:03:52.273Z,15.50
2022-10-24T21:06:26.533Z,15.50
2022-10-24T21:08:56.555Z,15.40
2022-10-24T21:11:26.444Z,15.40
2022-10-24T21:14:08.209Z,15.50
2022-10-24T21:16:35.609Z,15.40
2022-10-24T21:19:03.248Z,15.30
2022-10-24T21:21:30.387Z,15.30
2022-10-24T21:24:03.934Z,15.40
2022-10-24T21:26:34.867Z,15.40
2022-10-24T21:29:15.043Z,15.40
2022-10-24T21:31:52.268Z,15.30
2022-10-24T21:34:19.197Z,15.30
2022-10-24T21:36:46.432Z,15.20
2022-10-24T21:39:15.153Z,15.30
2022-10-24T21:41:42.814Z,15.30
2022-10-24T21:44:09.918Z,15.30
2022-10-24T21:46:36.700Z,15.20
2022-10-24T21:49:03.861Z,15.20
2022-10-24T21:51:35.647Z,15.00
2022-10-24T21:54:05.613Z,15.10
2022-10-24T21:56:36.637Z,15.00
2022-10-24T21:59:06.566Z,15.00
2022-10-24T22:01:36.979Z,15.00
2022-10-24T22:04:05.129Z,15.00
2022-10-24T22:06:33.333Z,15.00
2022-10-24T22:09:00.301Z,15.00
2022-10-24T22:11:30.080Z,15.10
2022-10-24T22:13:57.097Z,14.80
2022-10-24T22:16:25.801Z,14.80
2022-10-24T22:18:52.762Z,14.70
2022-10-24T22:21:37.396Z,14.70
2022-10-24T22:26:40.171Z,14.70
2022-10-24T22:29:07.857Z,14.70
2022-10-24T22:31:35.166Z,14.70
2022-10-24T22:34:02.319Z,14.80
2022-10-24T22:36:59.071Z,14.80
2022-10-24T22:39:26.827Z,14.80
2022-10-24T22:41:54.149Z,14.80
2022-10-24T22:44:21.888Z,14.80
2022-10-24T22:47:25.608Z,14.70
2022-10-24T22:50:05.068Z,14.70
2022-10-24T22:52:32.289Z,14.80
2022-10-24T22:54:59.464Z,14.70
2022-10-24T22:57:26.697Z,14.60
2022-10-24T22:59:53.716Z,14.60
2022-10-24T23:02:35.370Z,14.70
2022-10-24T23:05:10.605Z,14.60
2022-10-24T23:07:53.732Z,14.70
2022-10-24T23:10:22.712Z,14.70
2022-10-24T23:12:50.199Z,14.70
2022-10-24T23:15:19.264Z,14.70
2022-10-24T23:17:47.488Z,14.60
2022-10-24T23:20:33.247Z,14.60
2022-10-24T23:23:16.266Z,14.50
2022-10-24T23:25:51.157Z,14.50
2022-10-24T23:28:43.841Z,14.60
2022-10-24T23:31:10.928Z,14.60
2022-10-24T23:33:38.154Z,14.50
2022-10-24T23:36:05.454Z,14.60
2022-10-24T23:38:32.807Z,14.50
2022-10-24T23:40:59.800Z,14.50
2022-10-24T23:43:26.746Z,14.60
2022-10-24T23:46:01.973Z,14.40
2022-10-24T23:49:06.735Z,14.40
2022-10-24T23:51:40.769Z,14.40
2022-10-24T23:54:12.448Z,14.50
2022-10-24T23:56:40.823Z,14.40
2022-10-24T23:59:07.581Z,14.40
